Time;durP1;ratioP1;P1;durP2;ratioP2;P2;SDS_P1;SDS_P2;PMS_P1;PMS_P2;Temp;Humidity;BMP_temperature;BMP_pressure;BME280_temperature;BME280_humidity;BME280_pressure;Samples;Min_cycle;Max_cycle;Signal;HPM_P1;HPM_P2
2021/07/09 00:00:41;;;;;;;3.30;1.77;;;;;;;;;;1492665;39;20020;-57
2021/07/09 00:01:43;;;;;;;3.53;1.70;;;;;;;;;;1492632;39;20020;-58
2021/07/09 00:02:46;;;;;;;2.53;1.50;;;;;;;;;;1492580;39;20057;-58
2021/07/09 00:03:47;;;;;;;2.92;1.77;;;;;;;;;;1492685;39;20031;-57
2021/07/09 00:04:49;;;;;;;2.80;1.50;;;;;;;;;;1492590;39;20031;-58
2021/07/09 00:05:50;;;;;;;2.38;1.58;;;;;;;;;;1492818;39;20059;-57
2021/07/09 00:06:55;;;;;;;3.35;1.60;;;;;;;;;;1492742;39;20028;-58
2021/07/09 00:07:55;;;;;;;2.75;1.58;;;;;;;;;;1492600;39;20105;-58
2021/07/09 00:08:57;;;;;;;3.30;1.58;;;;;;;;;;1492670;39;20028;-58
2021/07/09 00:09:59;;;;;;;4.43;1.80;;;;;;;;;;1492660;39;20020;-58
2021/07/09 00:11:00;;;;;;;3.95;1.70;;;;;;;;;;1492585;39;20028;-58
2021/07/09 00:12:03;;;;;;;2.92;1.70;;;;;;;;;;1492692;39;20028;-57
2021/07/09 00:13:05;;;;;;;3.83;1.48;;;;;;;;;;1492576;39;20024;-58
2021/07/09 00:14:06;;;;;;;2.60;1.60;;;;;;;;;;1492502;39;20024;-58
2021/07/09 00:15:09;;;;;;;3.05;1.38;;;;;;;;;;1492738;39;20027;-58
2021/07/09 00:16:10;;;;;;;3.33;1.70;;;;;;;;;;1492170;39;20027;-57
2021/07/09 00:17:12;;;;;;;3.58;1.50;;;;;;;;;;1492321;39;20031;-58
2021/07/09 00:18:13;;;;;;;3.22;1.60;;;;;;;;;;1493223;39;20396;-57
2021/07/09 00:19:16;;;;;;;4.15;1.65;;;;;;;;;;1493486;39;20024;-58
2021/07/09 00:20:16;;;;;;;2.60;1.65;;;;;;;;;;1492669;39;20035;-57
2021/07/09 00:21:18;;;;;;;3.35;1.55;;;;;;;;;;1492775;39;20051;-58
2021/07/09 00:22:21;;;;;;;2.65;1.48;;;;;;;;;;1493282;39;20024;-57
2021/07/09 00:23:23;;;;;;;4.68;1.70;;;;;;;;;;1493391;39;20039;-58
2021/07/09 00:24:24;;;;;;;2.83;1.52;;;;;;;;;;1493204;39;20404;-57
2021/07/09 00:25:26;;;;;;;4.50;1.70;;;;;;;;;;1493388;39;20035;-57
2021/07/09 00:26:27;;;;;;;3.42;1.55;;;;;;;;;;1493278;39;20023;-57
2021/07/09 00:27:28;;;;;;;3.15;1.75;;;;;;;;;;1493360;39;20035;-57
2021/07/09 00:28:30;;;;;;;3.65;1.58;;;;;;;;;;1493178;39;20027;-58
2021/07/09 00:29:31;;;;;;;3.60;1.80;;;;;;;;;;1493345;39;20040;-57
2021/07/09 00:30:32;;;;;;;2.90;1.70;;;;;;;;;;1493328;39;20019;-58
2021/07/09 00:31:34;;;;;;;3.40;1.80;;;;;;;;;;1493427;39;20027;-58
2021/07/09 00:32:35;;;;;;;2.20;1.40;;;;;;;;;;1493177;39;20024;-57
2021/07/09 00:33:37;;;;;;;3.30;1.75;;;;;;;;;;1493273;39;20035;-58
2021/07/09 00:34:38;;;;;;;3.25;1.58;;;;;;;;;;1493339;39;20024;-57
2021/07/09 00:35:39;;;;;;;3.60;1.60;;;;;;;;;;1493264;39;20047;-57
2021/07/09 00:36:40;;;;;;;2.50;1.48;;;;;;;;;;1493338;39;20042;-58
2021/07/09 00:37:43;;;;;;;2.85;1.67;;;;;;;;;;1493212;39;20380;-58
2021/07/09 00:38:44;;;;;;;2.67;1.50;;;;;;;;;;1493270;39;20291;-57
2021/07/09 00:39:46;;;;;;;3.88;1.50;;;;;;;;;;1493230;39;20032;-58
2021/07/09 00:40:47;;;;;;;3.33;1.88;;;;;;;;;;1493286;39;20399;-58
2021/07/09 00:41:49;;;;;;;2.95;1.60;;;;;;;;;;1493315;39;20082;-58
2021/07/09 00:42:50;;;;;;;3.15;1.90;;;;;;;;;;1493214;39;20031;-57
2021/07/09 00:43:51;;;;;;;3.13;1.80;;;;;;;;;;1492713;39;20098;-57
2021/07/09 00:44:52;;;;;;;4.75;1.60;;;;;;;;;;1492664;39;20046;-57
2021/07/09 00:45:54;;;;;;;2.90;1.77;;;;;;;;;;1493261;39;20024;-58
2021/07/09 00:46:56;;;;;;;4.97;1.73;;;;;;;;;;1493204;39;20028;-57
2021/07/09 00:47:57;;;;;;;2.85;1.65;;;;;;;;;;1493326;39;20031;-57
2021/07/09 00:48:58;;;;;;;2.97;1.60;;;;;;;;;;1493433;39;20372;-57
2021/07/09 00:50:00;;;;;;;2.78;1.58;;;;;;;;;;1493161;39;20024;-58
2021/07/09 00:51:04;;;;;;;3.00;2.10;;;;;;;;;;1493213;39;20028;-58
2021/07/09 00:52:05;;;;;;;3.47;1.85;;;;;;;;;;1493163;39;20024;-58
2021/07/09 00:53:08;;;;;;;3.33;1.52;;;;;;;;;;1493180;39;20307;-57
2021/07/09 00:54:09;;;;;;;3.83;1.65;;;;;;;;;;1493136;39;20039;-58
2021/07/09 00:55:12;;;;;;;2.58;1.63;;;;;;;;;;1493168;39;20035;-57
2021/07/09 00:56:13;;;;;;;3.13;1.67;;;;;;;;;;1493306;39;20027;-58
2021/07/09 00:57:15;;;;;;;3.05;1.70;;;;;;;;;;1493214;39;20126;-58
2021/07/09 00:58:16;;;;;;;3.08;1.80;;;;;;;;;;1493263;39;20024;-57
2021/07/09 00:59:22;;;;;;;2.90;1.90;;;;;;;;;;1493104;39;20292;-58
2021/07/09 01:00:23;;;;;;;3.20;1.52;;;;;;;;;;1493273;39;20024;-57
2021/07/09 01:01:38;;;;;;;2.50;1.73;;;;;;;;;;1493237;39;20031;-57
2021/07/09 01:02:40;;;;;;;3.38;1.70;;;;;;;;;;1493002;39;20027;-57
2021/07/09 01:03:42;;;;;;;3.15;1.90;;;;;;;;;;1493334;39;20028;-58
2021/07/09 01:04:43;;;;;;;5.55;1.80;;;;;;;;;;1493199;39;20031;-58
2021/07/09 01:05:45;;;;;;;2.17;1.63;;;;;;;;;;1493395;39;20035;-57
2021/07/09 01:06:46;;;;;;;7.75;1.80;;;;;;;;;;1493089;39;20395;-58
2021/07/09 01:07:48;;;;;;;6.68;1.65;;;;;;;;;;1493302;39;20108;-58
2021/07/09 01:08:50;;;;;;;2.28;1.60;;;;;;;;;;1493148;39;20035;-57
2021/07/09 01:09:52;;;;;;;3.35;1.70;;;;;;;;;;1493341;39;20065;-58
2021/07/09 01:10:53;;;;;;;2.30;1.70;;;;;;;;;;1493075;39;20024;-58
2021/07/09 01:11:56;;;;;;;3.35;1.55;;;;;;;;;;1493163;39;20269;-58
2021/07/09 01:12:57;;;;;;;4.68;1.80;;;;;;;;;;1493036;39;20323;-58
2021/07/09 01:13:59;;;;;;;2.65;1.67;;;;;;;;;;1493010;39;20024;-57
2021/07/09 01:14:59;;;;;;;2.97;1.73;;;;;;;;;;1493117;39;20269;-57
2021/07/09 01:16:01;;;;;;;4.18;1.80;;;;;;;;;;1493013;39;20058;-58
2021/07/09 01:17:03;;;;;;;2.75;1.90;;;;;;;;;;1493216;39;20028;-57
2021/07/09 01:18:05;;;;;;;3.40;1.50;;;;;;;;;;1493191;39;20292;-57
2021/07/09 01:19:07;;;;;;;4.00;1.70;;;;;;;;;;1493075;39;20032;-57
2021/07/09 01:20:13;;;;;;;4.20;1.65;;;;;;;;;;1493357;39;20031;-57
2021/07/09 01:21:14;;;;;;;3.63;1.90;;;;;;;;;;1493183;39;20024;-57
2021/07/09 01:22:16;;;;;;;2.95;1.40;;;;;;;;;;1493262;39;20109;-58
2021/07/09 01:23:18;;;;;;;2.35;1.60;;;;;;;;;;1493047;39;20407;-58
2021/07/09 01:24:24;;;;;;;3.20;1.70;;;;;;;;;;1493148;39;20402;-58
2021/07/09 01:25:26;;;;;;;3.70;1.60;;;;;;;;;;1493125;39;20104;-58
2021/07/09 01:26:29;;;;;;;2.58;1.55;;;;;;;;;;1493082;39;20309;-57
2021/07/09 01:27:30;;;;;;;2.65;1.70;;;;;;;;;;1493091;39;20404;-58
2021/07/09 01:28:32;;;;;;;2.33;1.70;;;;;;;;;;1493100;39;20060;-57
2021/07/09 01:29:34;;;;;;;2.50;1.50;;;;;;;;;;1493136;39;20027;-57
2021/07/09 01:30:37;;;;;;;2.78;1.58;;;;;;;;;;1493048;39;20036;-57
2021/07/09 01:31:41;;;;;;;3.25;1.50;;;;;;;;;;1493155;39;20404;-57
2021/07/09 01:32:43;;;;;;;3.03;1.55;;;;;;;;;;1492967;39;20377;-57
2021/07/09 01:33:44;;;;;;;2.53;1.55;;;;;;;;;;1493071;39;20299;-57
2021/07/09 01:34:46;;;;;;;3.00;1.73;;;;;;;;;;1493182;39;20060;-58
2021/07/09 01:35:48;;;;;;;2.13;1.48;;;;;;;;;;1493073;39;20368;-58
2021/07/09 01:36:49;;;;;;;2.25;1.75;;;;;;;;;;1493149;39;20391;-57
2021/07/09 01:37:55;;;;;;;2.90;1.45;;;;;;;;;;1493026;39;20406;-57
2021/07/09 01:38:57;;;;;;;2.10;1.50;;;;;;;;;;1493090;39;20121;-58
2021/07/09 01:40:00;;;;;;;2.85;1.70;;;;;;;;;;1493075;39;20024;-58
2021/07/09 01:41:02;;;;;;;3.10;1.67;;;;;;;;;;1493213;39;20024;-58
2021/07/09 01:42:03;;;;;;;3.13;1.80;;;;;;;;;;1493009;39;20028;-58
2021/07/09 01:43:05;;;;;;;2.30;1.70;;;;;;;;;;1493098;39;20031;-58
2021/07/09 01:44:07;;;;;;;2.70;1.55;;;;;;;;;;1493043;39;20023;-57
2021/07/09 01:45:09;;;;;;;3.33;1.52;;;;;;;;;;1493141;39;20060;-57
2021/07/09 01:46:10;;;;;;;2.38;1.60;;;;;;;;;;1493114;39;20020;-58
2021/07/09 01:47:12;;;;;;;6.10;1.75;;;;;;;;;;1492945;39;20032;-57
2021/07/09 01:48:13;;;;;;;3.47;1.70;;;;;;;;;;1492999;39;20030;-57
2021/07/09 01:49:15;;;;;;;3.00;1.70;;;;;;;;;;1493027;39;20315;-58
2021/07/09 01:50:17;;;;;;;2.65;1.67;;;;;;;;;;1492991;39;20287;-57
2021/07/09 01:51:19;;;;;;;4.75;1.75;;;;;;;;;;1493151;39;20048;-58
2021/07/09 01:52:20;;;;;;;2.97;1.67;;;;;;;;;;1492967;39;20024;-57
2021/07/09 01:53:22;;;;;;;3.05;1.63;;;;;;;;;;1493149;39;20036;-57
2021/07/09 01:54:23;;;;;;;2.67;1.70;;;;;;;;;;1492909;39;20383;-57
2021/07/09 01:55:27;;;;;;;3.85;1.70;;;;;;;;;;1493058;39;20372;-57
2021/07/09 01:56:28;;;;;;;2.67;1.60;;;;;;;;;;1493011;39;20021;-57
2021/07/09 01:57:30;;;;;;;2.72;1.67;;;;;;;;;;1493013;39;20028;-57
2021/07/09 01:58:31;;;;;;;3.53;1.77;;;;;;;;;;1492940;39;20024;-58
2021/07/09 01:59:33;;;;;;;3.05;1.58;;;;;;;;;;1493029;39;20295;-57
2021/07/09 02:00:35;;;;;;;1.90;1.48;;;;;;;;;;1493069;39;20387;-57
2021/07/09 02:01:36;;;;;;;2.58;1.50;;;;;;;;;;1493056;39;20047;-57
2021/07/09 02:02:40;;;;;;;5.13;1.80;;;;;;;;;;1493087;39;20361;-59
2021/07/09 02:03:40;;;;;;;2.75;1.50;;;;;;;;;;1493074;39;20024;-57
2021/07/09 02:04:47;;;;;;;4.15;1.83;;;;;;;;;;1493119;39;20032;-57
2021/07/09 02:05:49;;;;;;;2.75;1.70;;;;;;;;;;1492981;39;20054;-58
2021/07/09 02:06:50;;;;;;;4.72;1.83;;;;;;;;;;1493182;39;20020;-57
2021/07/09 02:07:54;;;;;;;3.10;1.83;;;;;;;;;;1493060;39;20383;-57
2021/07/09 02:08:55;;;;;;;2.47;1.65;;;;;;;;;;1492961;39;20028;-57
2021/07/09 02:10:00;;;;;;;4.03;1.70;;;;;;;;;;1493272;39;20047;-58
2021/07/09 02:11:03;;;;;;;3.67;1.63;;;;;;;;;;1492978;39;20302;-58
2021/07/09 02:12:05;;;;;;;3.15;1.70;;;;;;;;;;1493079;39;20024;-57
2021/07/09 02:17:49;;;;;;;3.72;1.60;;;;;;;;;;1574393;22;20053;-60
2021/07/09 02:18:50;;;;;;;2.78;1.60;;;;;;;;;;1476255;40;20036;-60
2021/07/09 02:19:53;;;;;;;4.40;1.60;;;;;;;;;;1476311;40;20111;-61
2021/07/09 02:20:54;;;;;;;3.80;1.65;;;;;;;;;;1476461;40;20022;-61
2021/07/09 02:22:00;;;;;;;5.60;1.60;;;;;;;;;;1476384;40;20116;-61
2021/07/09 02:23:08;;;;;;;4.10;1.40;;;;;;;;;;1476149;40;20026;-61
2021/07/09 02:24:10;;;;;;;2.88;1.67;;;;;;;;;;1476406;40;20041;-60
2021/07/09 02:25:13;;;;;;;2.20;1.30;;;;;;;;;;1476269;40;20025;-61
2021/07/09 02:26:17;;;;;;;2.20;1.40;;;;;;;;;;1476344;40;20025;-61
2021/07/09 02:27:18;;;;;;;4.18;1.50;;;;;;;;;;1476160;40;20026;-60
2021/07/09 02:28:19;;;;;;;2.33;1.40;;;;;;;;;;1476173;40;20306;-60
2021/07/09 02:29:21;;;;;;;2.95;1.33;;;;;;;;;;1476278;40;20022;-61
2021/07/09 02:30:24;;;;;;;3.90;1.40;;;;;;;;;;1476320;40;20397;-60
2021/07/09 02:31:25;;;;;;;3.00;1.30;;;;;;;;;;1476259;40;20037;-61
2021/07/09 02:32:27;;;;;;;2.17;1.25;;;;;;;;;;1476319;40;20022;-61
2021/07/09 02:33:28;;;;;;;2.03;1.17;;;;;;;;;;1476313;40;20038;-61
2021/07/09 02:34:30;;;;;;;2.20;1.20;;;;;;;;;;1476276;40;20030;-61
2021/07/09 02:35:33;;;;;;;2.05;1.10;;;;;;;;;;1476186;40;20332;-61
2021/07/09 02:36:34;;;;;;;3.28;1.10;;;;;;;;;;1476414;40;20130;-61
2021/07/09 02:37:35;;;;;;;3.60;1.40;;;;;;;;;;1476177;40;20060;-61
2021/07/09 02:38:37;;;;;;;3.78;1.13;;;;;;;;;;1476400;40;20038;-60
2021/07/09 02:39:40;;;;;;;1.98;1.20;;;;;;;;;;1476095;40;20088;-62
2021/07/09 02:40:43;;;;;;;1.73;0.90;;;;;;;;;;1476259;40;20029;-61
2021/07/09 02:41:46;;;;;;;3.08;1.10;;;;;;;;;;1476192;40;20026;-61
2021/07/09 02:42:49;;;;;;;2.28;1.13;;;;;;;;;;1476369;40;20106;-62
2021/07/09 02:43:50;;;;;;;1.70;1.00;;;;;;;;;;1476281;40;20397;-60
2021/07/09 02:44:52;;;;;;;2.08;0.90;;;;;;;;;;1476285;40;20072;-61
2021/07/09 02:45:53;;;;;;;1.33;0.80;;;;;;;;;;1476222;40;20022;-60
2021/07/09 02:46:55;;;;;;;1.48;0.80;;;;;;;;;;1476174;40;20037;-60
2021/07/09 02:47:56;;;;;;;1.25;0.80;;;;;;;;;;1476127;40;20037;-61
2021/07/09 02:48:58;;;;;;;1.45;0.90;;;;;;;;;;1476142;40;20029;-61
2021/07/09 02:49:59;;;;;;;1.80;0.90;;;;;;;;;;1476186;40;20411;-60
2021/07/09 02:51:00;;;;;;;1.23;0.70;;;;;;;;;;1476259;40;20030;-61
2021/07/09 02:52:01;;;;;;;3.17;0.90;;;;;;;;;;1476176;40;20026;-61
2021/07/09 02:53:04;;;;;;;1.17;0.70;;;;;;;;;;1476267;40;20028;-60
2021/07/09 02:54:06;;;;;;;1.63;0.70;;;;;;;;;;1476190;40;20025;-61
2021/07/09 02:55:10;;;;;;;0.77;0.70;;;;;;;;;;1476322;40;20034;-61
2021/07/09 02:56:11;;;;;;;2.53;0.60;;;;;;;;;;1476169;40;20052;-60
2021/07/09 02:57:14;;;;;;;1.20;0.70;;;;;;;;;;1476138;40;20053;-61
2021/07/09 02:58:14;;;;;;;0.80;0.57;;;;;;;;;;1476131;40;20033;-60
2021/07/09 02:59:18;;;;;;;0.85;0.60;;;;;;;;;;1476198;40;20022;-61
2021/07/09 03:00:19;;;;;;;0.55;0.50;;;;;;;;;;1476242;40;20037;-61
2021/07/09 03:01:21;;;;;;;1.40;0.60;;;;;;;;;;1476223;40;20034;-61
2021/07/09 03:02:22;;;;;;;1.77;0.50;;;;;;;;;;1476274;40;20071;-61
2021/07/09 03:03:24;;;;;;;2.80;0.57;;;;;;;;;;1476249;40;20096;-61
2021/07/09 03:04:25;;;;;;;1.40;0.70;;;;;;;;;;1476091;40;20026;-60
2021/07/09 03:05:27;;;;;;;1.85;0.60;;;;;;;;;;1476222;40;20030;-59
2021/07/09 03:06:27;;;;;;;0.47;0.47;;;;;;;;;;1476198;40;20284;-61
2021/07/09 03:07:29;;;;;;;1.77;0.63;;;;;;;;;;1476312;40;20034;-60
2021/07/09 03:08:30;;;;;;;0.80;0.60;;;;;;;;;;1476184;40;20022;-61
2021/07/09 03:09:32;;;;;;;1.08;0.60;;;;;;;;;;1476201;40;20040;-60
2021/07/09 03:10:33;;;;;;;1.98;0.60;;;;;;;;;;1476162;40;20032;-61
2021/07/09 03:11:37;;;;;;;0.93;0.57;;;;;;;;;;1476223;40;20029;-61
2021/07/09 03:12:40;;;;;;;1.17;0.55;;;;;;;;;;1476257;40;20025;-61
2021/07/09 03:13:42;;;;;;;1.38;0.60;;;;;;;;;;1476352;40;20058;-61
2021/07/09 03:14:43;;;;;;;1.42;0.60;;;;;;;;;;1476043;40;20037;-60
2021/07/09 03:15:45;;;;;;;1.27;0.70;;;;;;;;;;1476158;40;20029;-61
2021/07/09 03:16:46;;;;;;;0.90;0.50;;;;;;;;;;1476078;40;20025;-60
2021/07/09 03:17:47;;;;;;;0.82;0.60;;;;;;;;;;1476189;40;20064;-61
2021/07/09 03:18:49;;;;;;;0.93;0.70;;;;;;;;;;1476339;40;20037;-59
2021/07/09 03:19:50;;;;;;;2.47;0.60;;;;;;;;;;1476100;40;20018;-60
2021/07/09 03:20:52;;;;;;;0.90;0.57;;;;;;;;;;1476218;40;20029;-59
2021/07/09 03:21:53;;;;;;;0.88;0.60;;;;;;;;;;1476087;40;20041;-61
2021/07/09 03:22:55;;;;;;;0.73;0.60;;;;;;;;;;1476180;40;20030;-60
2021/07/09 03:23:56;;;;;;;1.00;0.60;;;;;;;;;;1476158;40;20026;-60
2021/07/09 03:24:58;;;;;;;1.35;0.57;;;;;;;;;;1476251;40;20022;-60
2021/07/09 03:26:00;;;;;;;2.20;0.60;;;;;;;;;;1476050;40;20029;-59
2021/07/09 03:27:02;;;;;;;0.75;0.50;;;;;;;;;;1476083;40;20038;-60
2021/07/09 03:28:04;;;;;;;0.90;0.55;;;;;;;;;;1476064;40;20027;-60
2021/07/09 03:29:06;;;;;;;0.95;0.60;;;;;;;;;;1476216;40;20030;-60
2021/07/09 03:30:09;;;;;;;1.77;0.60;;;;;;;;;;1476145;40;20052;-61
2021/07/09 03:31:10;;;;;;;0.70;0.40;;;;;;;;;;1476157;40;20033;-61
2021/07/09 03:32:11;;;;;;;1.30;0.60;;;;;;;;;;1476179;40;20029;-60
2021/07/09 03:33:13;;;;;;;0.47;0.40;;;;;;;;;;1476178;40;20297;-61
2021/07/09 03:34:14;;;;;;;1.23;0.70;;;;;;;;;;1476046;40;20408;-61
2021/07/09 03:35:16;;;;;;;2.20;0.50;;;;;;;;;;1476187;40;20026;-60
2021/07/09 03:36:17;;;;;;;0.80;0.60;;;;;;;;;;1476076;40;20022;-60
2021/07/09 03:37:18;;;;;;;0.65;0.40;;;;;;;;;;1476225;40;20032;-61
2021/07/09 03:38:20;;;;;;;1.83;0.60;;;;;;;;;;1476115;40;20404;-59
2021/07/09 03:39:21;;;;;;;0.75;0.50;;;;;;;;;;1476075;40;20030;-59
2021/07/09 03:40:23;;;;;;;2.13;0.50;;;;;;;;;;1476062;40;20035;-61
2021/07/09 03:41:25;;;;;;;1.23;0.50;;;;;;;;;;1476088;40;20025;-60
2021/07/09 03:42:27;;;;;;;2.28;0.70;;;;;;;;;;1476117;40;20330;-61
2021/07/09 03:43:29;;;;;;;0.95;0.57;;;;;;;;;;1476209;40;20036;-61
2021/07/09 03:44:31;;;;;;;2.78;0.60;;;;;;;;;;1476181;40;20026;-60
2021/07/09 03:45:32;;;;;;;2.03;0.55;;;;;;;;;;1476029;40;20022;-61
2021/07/09 03:46:34;;;;;;;0.98;0.60;;;;;;;;;;1476069;40;20026;-60
2021/07/09 03:47:35;;;;;;;0.70;0.50;;;;;;;;;;1476052;40;20036;-60
2021/07/09 03:48:37;;;;;;;1.60;0.60;;;;;;;;;;1476063;40;20049;-60
2021/07/09 03:49:38;;;;;;;1.30;0.65;;;;;;;;;;1476192;40;20022;-60
2021/07/09 03:50:40;;;;;;;1.27;0.60;;;;;;;;;;1476055;40;20029;-60
2021/07/09 03:51:40;;;;;;;1.13;0.50;;;;;;;;;;1476052;40;20029;-60
2021/07/09 03:52:42;;;;;;;0.60;0.50;;;;;;;;;;1476561;40;20385;-60
2021/07/09 03:53:43;;;;;;;1.42;0.50;;;;;;;;;;1476821;40;20052;-60
2021/07/09 03:54:45;;;;;;;0.68;0.50;;;;;;;;;;1476733;40;20034;-61
2021/07/09 03:55:46;;;;;;;1.08;0.57;;;;;;;;;;1476664;40;20022;-61
2021/07/09 03:56:47;;;;;;;1.00;0.60;;;;;;;;;;1476751;40;20029;-61
2021/07/09 03:57:48;;;;;;;0.60;0.50;;;;;;;;;;1476510;40;20028;-61
2021/07/09 03:58:52;;;;;;;1.60;0.80;;;;;;;;;;1476797;40;20041;-61
2021/07/09 03:59:52;;;;;;;0.98;0.50;;;;;;;;;;1476686;40;20029;-60
2021/07/09 04:00:54;;;;;;;1.08;0.68;;;;;;;;;;1476690;40;20021;-61
2021/07/09 04:01:55;;;;;;;1.23;0.70;;;;;;;;;;1476691;40;20392;-61
2021/07/09 04:02:57;;;;;;;3.35;0.70;;;;;;;;;;1476711;40;20033;-61
2021/07/09 04:03:57;;;;;;;1.08;0.60;;;;;;;;;;1476597;40;20033;-60
2021/07/09 04:04:59;;;;;;;2.33;0.70;;;;;;;;;;1476762;40;20030;-60
2021/07/09 04:06:00;;;;;;;1.15;0.65;;;;;;;;;;1476683;40;20040;-60
2021/07/09 04:07:02;;;;;;;1.60;0.70;;;;;;;;;;1476906;40;20022;-58
2021/07/09 04:08:03;;;;;;;1.00;0.60;;;;;;;;;;1476598;40;20273;-58
2021/07/09 04:09:05;;;;;;;1.38;0.80;;;;;;;;;;1476717;40;20033;-58
2021/07/09 04:10:07;;;;;;;1.52;0.80;;;;;;;;;;1476859;40;20030;-58
2021/07/09 04:11:08;;;;;;;1.13;0.70;;;;;;;;;;1476502;40;20041;-57
2021/07/09 04:12:09;;;;;;;1.33;0.70;;;;;;;;;;1476776;40;20022;-57
2021/07/09 04:13:13;;;;;;;2.05;0.80;;;;;;;;;;1476685;40;20405;-57
2021/07/09 04:14:15;;;;;;;1.75;0.90;;;;;;;;;;1476584;40;20026;-58
2021/07/09 04:15:19;;;;;;;2.58;0.80;;;;;;;;;;1476616;40;20037;-59
2021/07/09 04:16:20;;;;;;;1.80;0.80;;;;;;;;;;1476689;40;20070;-58
2021/07/09 04:17:22;;;;;;;1.58;1.00;;;;;;;;;;1476724;40;20053;-58
2021/07/09 04:18:23;;;;;;;1.10;0.73;;;;;;;;;;1476617;40;20037;-58
2021/07/09 04:19:24;;;;;;;2.58;0.90;;;;;;;;;;1476700;40;20022;-58
2021/07/09 04:20:25;;;;;;;1.85;1.00;;;;;;;;;;1476752;40;20030;-58
2021/07/09 04:21:27;;;;;;;1.55;0.85;;;;;;;;;;1476842;40;20097;-58
2021/07/09 04:22:28;;;;;;;2.60;1.20;;;;;;;;;;1476545;40;20033;-57
2021/07/09 04:23:30;;;;;;;2.58;1.02;;;;;;;;;;1476687;40;20033;-57
2021/07/09 04:24:32;;;;;;;2.53;1.10;;;;;;;;;;1476689;40;20036;-57
2021/07/09 04:25:34;;;;;;;1.60;0.90;;;;;;;;;;1476680;40;20070;-58
2021/07/09 04:26:34;;;;;;;1.63;0.95;;;;;;;;;;1476690;40;20026;-58
2021/07/09 04:27:37;;;;;;;2.03;1.20;;;;;;;;;;1476682;40;20404;-58
2021/07/09 04:28:40;;;;;;;3.47;1.30;;;;;;;;;;1476544;40;20030;-57
2021/07/09 04:29:42;;;;;;;1.90;1.20;;;;;;;;;;1476740;40;20024;-58
2021/07/09 04:30:44;;;;;;;2.03;1.27;;;;;;;;;;1476678;40;20038;-58
2021/07/09 04:31:45;;;;;;;1.63;1.10;;;;;;;;;;1476540;40;20034;-58
2021/07/09 04:32:47;;;;;;;3.25;1.33;;;;;;;;;;1476663;40;20065;-58
2021/07/09 04:33:50;;;;;;;2.67;1.40;;;;;;;;;;1476542;40;20032;-58
2021/07/09 04:34:51;;;;;;;2.25;1.27;;;;;;;;;;1476721;40;20025;-58
2021/07/09 04:35:52;;;;;;;2.20;1.20;;;;;;;;;;1476514;40;20021;-58
2021/07/09 04:36:54;;;;;;;2.50;1.30;;;;;;;;;;1476540;40;20026;-58
2021/07/09 04:37:55;;;;;;;2.65;1.27;;;;;;;;;;1476509;40;20030;-58
2021/07/09 04:38:57;;;;;;;3.53;1.40;;;;;;;;;;1475961;40;20030;-58
2021/07/09 04:39:57;;;;;;;1.58;0.98;;;;;;;;;;1476099;40;20073;-58
2021/07/09 04:40:59;;;;;;;2.42;1.20;;;;;;;;;;1476531;40;20034;-58
2021/07/09 04:42:00;;;;;;;1.60;1.10;;;;;;;;;;1476515;40;20032;-57
2021/07/09 04:43:02;;;;;;;1.88;1.20;;;;;;;;;;1476492;40;20045;-57
2021/07/09 04:44:03;;;;;;;2.10;1.17;;;;;;;;;;1476510;40;20026;-57
2021/07/09 04:45:08;;;;;;;2.95;1.23;;;;;;;;;;1476527;40;20018;-58
2021/07/09 04:46:09;;;;;;;1.95;1.20;;;;;;;;;;1476470;40;20378;-57
2021/07/09 04:47:11;;;;;;;1.48;0.93;;;;;;;;;;1476531;40;20041;-58
2021/07/09 04:48:11;;;;;;;2.30;1.20;;;;;;;;;;1476664;40;20029;-57
2021/07/09 04:49:13;;;;;;;1.80;1.10;;;;;;;;;;1476701;40;20369;-58
2021/07/09 04:50:15;;;;;;;2.95;1.33;;;;;;;;;;1476497;40;20026;-57
2021/07/09 04:51:17;;;;;;;3.00;1.20;;;;;;;;;;1476569;40;20037;-58
2021/07/09 04:52:18;;;;;;;2.20;1.30;;;;;;;;;;1476569;40;20022;-58
2021/07/09 04:53:20;;;;;;;3.22;1.30;;;;;;;;;;1476611;40;20404;-57
2021/07/09 04:54:21;;;;;;;2.55;1.30;;;;;;;;;;1476590;40;20018;-57
2021/07/09 04:55:23;;;;;;;2.47;1.20;;;;;;;;;;1476500;40;20104;-57
2021/07/09 04:56:24;;;;;;;2.65;1.30;;;;;;;;;;1476500;40;20022;-57
2021/07/09 04:57:25;;;;;;;2.50;1.58;;;;;;;;;;1476524;40;20038;-58
2021/07/09 04:58:26;;;;;;;2.63;1.48;;;;;;;;;;1476501;40;20297;-58
2021/07/09 04:59:28;;;;;;;2.35;1.40;;;;;;;;;;1476724;40;20018;-57
2021/07/09 05:00:30;;;;;;;3.38;1.40;;;;;;;;;;1476637;40;20021;-58
2021/07/09 05:01:32;;;;;;;3.40;1.50;;;;;;;;;;1476566;40;20077;-58
2021/07/09 05:02:35;;;;;;;3.15;1.40;;;;;;;;;;1476568;40;20029;-58
2021/07/09 05:03:38;;;;;;;2.53;1.50;;;;;;;;;;1476464;40;20028;-58
2021/07/09 05:04:39;;;;;;;3.13;1.20;;;;;;;;;;1476526;40;20028;-58
2021/07/09 05:05:41;;;;;;;2.95;1.58;;;;;;;;;;1476558;40;20034;-58
2021/07/09 05:06:41;;;;;;;2.83;1.45;;;;;;;;;;1476502;40;20119;-58
2021/07/09 05:07:43;;;;;;;2.55;1.50;;;;;;;;;;1476426;40;20045;-58
2021/07/09 05:08:44;;;;;;;3.20;1.30;;;;;;;;;;1476494;40;20289;-58
2021/07/09 05:09:46;;;;;;;3.95;1.60;;;;;;;;;;1476420;40;20034;-58
2021/07/09 05:10:47;;;;;;;2.45;1.48;;;;;;;;;;1476537;40;20397;-58
2021/07/09 05:11:48;;;;;;;2.22;1.50;;;;;;;;;;1476606;40;20052;-57
2021/07/09 05:12:50;;;;;;;2.47;1.60;;;;;;;;;;1476553;40;20034;-58
2021/07/09 05:13:51;;;;;;;2.30;1.60;;;;;;;;;;1476512;40;20033;-58
2021/07/09 05:14:53;;;;;;;2.25;1.70;;;;;;;;;;1476618;40;20045;-58
2021/07/09 05:15:55;;;;;;;2.75;1.40;;;;;;;;;;1476403;40;20022;-57
2021/07/09 05:16:57;;;;;;;3.00;1.90;;;;;;;;;;1476536;40;20030;-58
2021/07/09 05:17:58;;;;;;;2.28;1.42;;;;;;;;;;1476411;40;20030;-57
2021/07/09 05:19:00;;;;;;;2.90;1.40;;;;;;;;;;1476423;40;20038;-57
2021/07/09 05:20:00;;;;;;;3.35;1.60;;;;;;;;;;1476438;40;20022;-58
2021/07/09 05:21:03;;;;;;;2.17;1.48;;;;;;;;;;1476524;40;20026;-58
2021/07/09 05:22:04;;;;;;;2.50;1.75;;;;;;;;;;1475863;40;20413;-58
2021/07/09 05:23:06;;;;;;;3.25;1.52;;;;;;;;;;1476118;40;20018;-58
2021/07/09 05:24:09;;;;;;;3.30;1.80;;;;;;;;;;1476437;40;20030;-58
2021/07/09 05:25:12;;;;;;;3.42;1.75;;;;;;;;;;1476590;40;20026;-58
2021/07/09 05:26:14;;;;;;;2.75;1.80;;;;;;;;;;1476433;40;20049;-57
2021/07/09 05:27:16;;;;;;;2.58;1.70;;;;;;;;;;1476428;40;20022;-57
2021/07/09 05:28:17;;;;;;;2.03;1.50;;;;;;;;;;1476598;40;20078;-58
2021/07/09 05:29:18;;;;;;;2.35;1.45;;;;;;;;;;1476479;40;20385;-58
2021/07/09 05:30:19;;;;;;;2.50;1.50;;;;;;;;;;1476393;40;20033;-58
2021/07/09 05:31:23;;;;;;;2.60;1.80;;;;;;;;;;1476461;40;20057;-58
2021/07/09 05:32:26;;;;;;;2.75;1.77;;;;;;;;;;1476555;40;20036;-58
2021/07/09 05:33:28;;;;;;;2.83;1.90;;;;;;;;;;1476468;40;20022;-58
2021/07/09 05:34:30;;;;;;;2.60;1.70;;;;;;;;;;1476466;40;20373;-58
2021/07/09 05:35:35;;;;;;;3.00;1.92;;;;;;;;;;1476380;40;20030;-57
2021/07/09 05:36:37;;;;;;;3.10;1.67;;;;;;;;;;1476582;40;20033;-58
2021/07/09 05:37:39;;;;;;;3.33;1.88;;;;;;;;;;1476375;40;20053;-58
2021/07/09 05:38:40;;;;;;;3.00;1.55;;;;;;;;;;1476373;40;20025;-58
2021/07/09 05:39:42;;;;;;;3.17;1.90;;;;;;;;;;1476352;40;20038;-58
2021/07/09 05:40:43;;;;;;;3.03;1.77;;;;;;;;;;1476479;40;20282;-57
2021/07/09 05:41:44;;;;;;;3.15;1.70;;;;;;;;;;1476485;40;20025;-58
2021/07/09 05:42:45;;;;;;;2.55;1.88;;;;;;;;;;1476391;40;20270;-58
2021/07/09 05:43:47;;;;;;;3.45;1.90;;;;;;;;;;1476537;40;20041;-58
2021/07/09 05:44:48;;;;;;;2.97;1.70;;;;;;;;;;1476385;40;20393;-58
2021/07/09 05:45:50;;;;;;;3.30;2.00;;;;;;;;;;1476437;40;20025;-58
2021/07/09 05:46:52;;;;;;;2.38;1.85;;;;;;;;;;1476460;40;20037;-58
2021/07/09 05:47:54;;;;;;;3.50;1.92;;;;;;;;;;1476456;40;20026;-57
2021/07/09 05:48:54;;;;;;;4.07;1.92;;;;;;;;;;1476501;40;20032;-58
2021/07/09 05:49:56;;;;;;;3.83;2.00;;;;;;;;;;1476502;40;20277;-58
2021/07/09 05:50:57;;;;;;;3.40;1.80;;;;;;;;;;1476389;40;20394;-57
2021/07/09 05:51:59;;;;;;;3.70;1.80;;;;;;;;;;1476516;40;20032;-58
2021/07/09 05:53:00;;;;;;;3.90;1.73;;;;;;;;;;1476403;40;20033;-58
2021/07/09 05:54:01;;;;;;;3.55;1.70;;;;;;;;;;1476318;40;20030;-57
2021/07/09 05:55:03;;;;;;;3.00;1.98;;;;;;;;;;1476440;40;20052;-58
2021/07/09 05:56:06;;;;;;;4.53;1.95;;;;;;;;;;1476328;40;20111;-58
2021/07/09 05:57:08;;;;;;;4.13;2.00;;;;;;;;;;1476237;40;20026;-58
2021/07/09 05:58:09;;;;;;;2.58;1.67;;;;;;;;;;1476413;40;20022;-58
2021/07/09 05:59:10;;;;;;;2.35;1.60;;;;;;;;;;1476423;40;20111;-57
2021/07/09 06:00:12;;;;;;;2.78;1.90;;;;;;;;;;1476349;40;20033;-58
2021/07/09 06:01:14;;;;;;;2.15;1.60;;;;;;;;;;1476407;40;20350;-58
2021/07/09 06:02:16;;;;;;;2.30;1.60;;;;;;;;;;1476295;40;20026;-58
2021/07/09 06:03:18;;;;;;;3.63;1.63;;;;;;;;;;1476407;40;20305;-58
2021/07/09 06:04:19;;;;;;;3.05;1.52;;;;;;;;;;1476309;40;20033;-57
2021/07/09 06:05:21;;;;;;;2.72;1.48;;;;;;;;;;1476324;40;20296;-58
2021/07/09 06:06:21;;;;;;;2.00;1.20;;;;;;;;;;1476325;40;20033;-58
2021/07/09 06:07:23;;;;;;;3.70;1.50;;;;;;;;;;1476355;40;20404;-58
2021/07/09 06:08:24;;;;;;;2.00;1.40;;;;;;;;;;1476423;40;20028;-58
2021/07/09 06:09:26;;;;;;;3.47;1.58;;;;;;;;;;1476531;40;20033;-57
2021/07/09 06:10:26;;;;;;;3.72;1.33;;;;;;;;;;1476295;40;20026;-58
2021/07/09 06:11:29;;;;;;;2.50;1.30;;;;;;;;;;1476495;40;20030;-58
2021/07/09 06:12:30;;;;;;;2.13;1.38;;;;;;;;;;1476246;40;20039;-57
2021/07/09 06:13:32;;;;;;;2.30;1.10;;;;;;;;;;1476318;40;20038;-57
2021/07/09 06:14:33;;;;;;;1.92;1.00;;;;;;;;;;1476086;40;20022;-57
2021/07/09 06:15:34;;;;;;;4.38;1.50;;;;;;;;;;1475961;40;20026;-58